Time;durP1;ratioP1;P1;durP2;ratioP2;P2;SDS_P1;SDS_P2;PMS_P1;PMS_P2;Temp;Humidity;BMP_temperature;BMP_pressure;BME280_temperature;BME280_humidity;BME280_pressure;Samples;Min_cycle;Max_cycle;Signal;HPM_P1;HPM_P2
2023/04/07 00:01:30;;;;;;;20.38;13.30;;;10.00;99.90;;;;;;5052892;28;20262;-61
2023/04/07 00:03:55;;;;;;;17.13;12.63;;;10.00;99.90;;;;;;5052768;28;20266;-61
2023/04/07 00:06:21;;;;;;;16.98;12.38;;;10.00;99.90;;;;;;5052922;28;20621;-61
2023/04/07 00:08:47;;;;;;;16.50;13.38;;;10.00;99.90;;;;;;5053083;28;20716;-62
2023/04/07 00:11:13;;;;;;;20.23;13.18;;;10.00;99.90;;;;;;5053256;28;20443;-61
2023/04/07 00:13:38;;;;;;;20.85;14.00;;;10.00;99.90;;;;;;5052835;28;20262;-61
2023/04/07 00:16:04;;;;;;;19.55;14.00;;;10.00;99.90;;;;;;5055933;28;20624;-61
2023/04/07 00:18:30;;;;;;;20.98;13.65;;;10.00;99.90;;;;;;5056215;28;20648;-61
2023/04/07 00:20:56;;;;;;;24.17;13.57;;;10.00;99.90;;;;;;5056605;28;20186;-61
2023/04/07 00:23:21;;;;;;;21.38;13.70;;;9.90;99.90;;;;;;5056104;28;20275;-61
2023/04/07 00:25:48;;;;;;;19.75;12.90;;;9.90;99.90;;;;;;5056419;28;20192;-61
2023/04/07 00:28:13;;;;;;;20.10;13.13;;;10.00;99.90;;;;;;5056306;28;20182;-61
2023/04/07 00:30:39;;;;;;;21.20;13.07;;;9.90;99.90;;;;;;5055051;28;20179;-61
2023/04/07 00:33:05;;;;;;;21.15;12.98;;;9.90;99.90;;;;;;5056215;28;20629;-61
2023/04/07 00:35:30;;;;;;;21.83;12.60;;;9.90;99.90;;;;;;5056244;28;20210;-61
2023/04/07 00:37:56;;;;;;;16.60;12.27;;;9.90;99.90;;;;;;5056191;28;20203;-61
2023/04/07 00:40:22;;;;;;;18.83;11.82;;;9.80;99.90;;;;;;5056168;28;20555;-61
2023/04/07 00:42:47;;;;;;;15.55;11.65;;;9.80;99.90;;;;;;5054760;28;20675;-62
2023/04/07 00:45:13;;;;;;;22.15;12.30;;;9.90;99.90;;;;;;5055795;28;20635;-61
2023/04/07 00:47:39;;;;;;;18.35;11.43;;;9.90;99.90;;;;;;5055979;28;20179;-61
2023/04/07 00:50:05;;;;;;;18.15;12.38;;;9.90;99.90;;;;;;5055914;28;20175;-61
2023/04/07 00:52:35;;;;;;;14.35;11.20;;;9.80;99.90;;;;;;5055813;28;20172;-61
2023/04/07 00:55:01;;;;;;;17.73;11.75;;;9.80;99.90;;;;;;5055917;28;20304;-61
2023/04/07 00:57:26;;;;;;;16.20;10.82;;;9.80;99.90;;;;;;5055878;28;20270;-62
2023/04/07 00:59:53;;;;;;;17.38;10.70;;;9.90;99.90;;;;;;5055758;28;20182;-62
2023/04/07 01:02:37;;;;;;;14.32;11.10;;;9.80;99.90;;;;;;5055759;28;20176;-61
2023/04/07 01:05:19;;;;;;;16.42;10.73;;;9.80;99.90;;;;;;5055773;28;20224;-61
2023/04/07 01:08:23;;;;;;;18.58;12.02;;;9.80;99.90;;;;;;5055731;28;20159;-61
2023/04/07 01:11:07;;;;;;;13.95;10.75;;;9.80;99.90;;;;;;5053155;28;20241;-61
2023/04/07 01:13:42;;;;;;;18.75;11.35;;;9.70;99.90;;;;;;5055573;28;20167;-62
2023/04/07 01:16:12;;;;;;;16.13;11.35;;;9.70;99.90;;;;;;5055872;28;20633;-61
2023/04/07 01:18:39;;;;;;;16.67;11.75;;;9.80;99.90;;;;;;5055183;28;20175;-61
2023/04/07 01:21:17;;;;;;;19.40;11.73;;;9.80;99.90;;;;;;5055366;28;20199;-61
2023/04/07 01:23:58;;;;;;;16.25;11.63;;;9.80;99.90;;;;;;5055193;28;20353;-61
2023/04/07 01:26:27;;;;;;;14.63;10.60;;;9.80;99.90;;;;;;5054834;28;20647;-61
2023/04/07 01:29:04;;;;;;;13.85;11.32;;;9.70;99.90;;;;;;5054948;28;20528;-61
2023/04/07 01:31:31;;;;;;;14.73;10.27;;;9.80;99.90;;;;;;5055252;28;20163;-61
2023/04/07 01:33:59;;;;;;;16.02;11.02;;;9.70;99.90;;;;;;5055170;28;20182;-61
2023/04/07 01:36:28;;;;;;;14.32;10.75;;;9.60;99.90;;;;;;5053795;28;20525;-62
2023/04/07 01:38:54;;;;;;;13.05;10.43;;;9.60;99.90;;;;;;5053873;28;20178;-61
2023/04/07 01:41:22;;;;;;;15.55;10.65;;;9.60;99.90;;;;;;5053864;28;20175;-61
2023/04/07 01:43:48;;;;;;;13.10;10.30;;;9.60;99.90;;;;;;5054905;28;20344;-61
2023/04/07 01:46:15;;;;;;;12.25;10.50;;;9.60;99.90;;;;;;5054953;28;20244;-61
2023/04/07 01:48:41;;;;;;;13.75;9.90;;;9.60;99.90;;;;;;5054812;28;20206;-61
2023/04/07 01:51:10;;;;;;;13.10;10.20;;;9.60;99.90;;;;;;5054648;28;20182;-61
2023/04/07 01:53:37;;;;;;;15.73;10.13;;;9.60;99.90;;;;;;5054755;28;20179;-62
2023/04/07 01:56:03;;;;;;;11.55;10.02;;;9.60;99.90;;;;;;5054697;28;20680;-61
2023/04/07 01:58:29;;;;;;;12.18;9.20;;;9.70;99.90;;;;;;5054817;28;20170;-61
2023/04/07 02:00:55;;;;;;;13.07;9.65;;;9.70;99.90;;;;;;5054685;28;20536;-61
2023/04/07 02:03:26;;;;;;;13.25;8.95;;;9.70;99.90;;;;;;5054506;28;20211;-61
2023/04/07 02:05:55;;;;;;;12.93;9.10;;;9.70;99.90;;;;;;5054792;28;20174;-61
2023/04/07 02:08:23;;;;;;;12.15;9.32;;;9.70;99.90;;;;;;5054423;28;20175;-61
2023/04/07 02:10:50;;;;;;;12.77;9.07;;;9.70;99.90;;;;;;5054136;28;20175;-61
2023/04/07 02:13:19;;;;;;;13.38;9.25;;;9.60;99.90;;;;;;5054343;28;20175;-61
2023/04/07 02:15:45;;;;;;;10.88;8.82;;;9.60;99.90;;;;;;5054368;28;20167;-61
2023/04/07 02:18:14;;;;;;;13.60;9.50;;;9.50;99.90;;;;;;5054256;28;20174;-61
2023/04/07 02:20:42;;;;;;;13.40;9.35;;;9.60;99.90;;;;;;5054221;28;20171;-61
2023/04/07 02:23:09;;;;;;;11.57;9.40;;;9.60;99.90;;;;;;5053785;28;20202;-61
2023/04/07 02:25:37;;;;;;;14.98;9.93;;;9.60;99.90;;;;;;5054196;28;20167;-61
2023/04/07 02:28:04;;;;;;;16.05;10.63;;;9.70;99.90;;;;;;5054004;28;20182;-61
2023/04/07 02:30:30;;;;;;;15.50;9.82;;;9.60;99.90;;;;;;5054027;28;20175;-61
2023/04/07 02:32:56;;;;;;;13.02;10.30;;;9.70;99.90;;;;;;5054392;28;20175;-61
2023/04/07 02:35:22;;;;;;;12.73;10.13;;;9.60;99.90;;;;;;5053688;28;20202;-61
2023/04/07 02:37:48;;;;;;;15.07;10.52;;;9.60;99.90;;;;;;5053411;28;20229;-62
2023/04/07 02:40:14;;;;;;;16.65;10.80;;;9.50;99.90;;;;;;5053851;28;20179;-61
2023/04/07 02:42:40;;;;;;;14.65;10.35;;;9.50;99.90;;;;;;5053787;28;20171;-61
2023/04/07 02:45:07;;;;;;;16.48;11.05;;;9.50;99.90;;;;;;5053502;28;20286;-61
2023/04/07 02:47:34;;;;;;;14.73;10.57;;;9.40;99.90;;;;;;5053437;28;20248;-61
2023/04/07 02:50:00;;;;;;;13.20;10.50;;;9.50;99.90;;;;;;5053692;28;20183;-62
2023/04/07 02:52:25;;;;;;;16.00;11.25;;;9.50;99.90;;;;;;5053661;28;20525;-62
2023/04/07 02:54:51;;;;;;;17.15;11.45;;;9.50;99.90;;;;;;5053717;28;20175;-61
2023/04/07 02:57:17;;;;;;;16.58;11.35;;;9.50;99.90;;;;;;5053596;28;20191;-61
2023/04/07 02:59:43;;;;;;;19.40;12.32;;;9.40;99.90;;;;;;5053594;28;20167;-61
2023/04/07 03:02:08;;;;;;;15.68;12.90;;;9.30;99.90;;;;;;5053511;28;20274;-61
2023/04/07 03:04:34;;;;;;;17.00;11.77;;;9.30;99.90;;;;;;5053442;28;20203;-62
2023/04/07 03:07:00;;;;;;;14.98;11.77;;;9.20;99.90;;;;;;5053487;28;20699;-62
2023/04/07 03:09:26;;;;;;;15.73;13.05;;;9.20;99.90;;;;;;5053482;28;20179;-61
2023/04/07 03:11:52;;;;;;;16.60;12.90;;;9.20;99.90;;;;;;5053459;28;20202;-61
2023/04/07 03:14:17;;;;;;;15.10;12.40;;;9.20;99.90;;;;;;5053391;28;20190;-61
2023/04/07 03:16:43;;;;;;;17.70;13.30;;;9.20;99.90;;;;;;5053252;28;20182;-61
2023/04/07 03:19:09;;;;;;;20.00;12.90;;;9.10;99.90;;;;;;5053370;28;20171;-61
2023/04/07 03:21:38;;;;;;;15.75;12.25;;;9.10;99.90;;;;;;5053300;28;20207;-61
2023/04/07 03:24:07;;;;;;;19.98;13.43;;;9.10;99.90;;;;;;5053111;28;20245;-61
2023/04/07 03:26:33;;;;;;;17.40;12.90;;;9.10;99.90;;;;;;5053285;28;20195;-61
2023/04/07 03:28:59;;;;;;;18.17;13.00;;;9.10;99.90;;;;;;5052965;28;20207;-61
2023/04/07 03:31:25;;;;;;;16.63;12.98;;;9.00;99.90;;;;;;5053478;28;20266;-61
2023/04/07 03:33:50;;;;;;;19.25;13.52;;;9.00;99.90;;;;;;5053069;28;20183;-61
2023/04/07 03:36:19;;;;;;;16.52;13.60;;;9.00;99.90;;;;;;5053114;28;20175;-61
2023/04/07 03:38:46;;;;;;;18.70;13.43;;;9.00;99.90;;;;;;5053105;28;20175;-61
2023/04/07 03:41:12;;;;;;;15.93;13.50;;;8.90;99.90;;;;;;5053150;28;20490;-62
2023/04/07 03:43:38;;;;;;;19.45;14.02;;;8.90;99.90;;;;;;5053029;28;20206;-61
2023/04/07 03:46:04;;;;;;;19.38;14.85;;;8.80;99.90;;;;;;5053448;28;20188;-61
2023/04/07 03:48:30;;;;;;;21.20;14.30;;;8.80;99.90;;;;;;5052709;28;20175;-62
2023/04/07 03:50:55;;;;;;;18.35;14.77;;;8.80;99.90;;;;;;5055835;28;20233;-61
2023/04/07 03:53:21;;;;;;;17.98;13.70;;;8.70;99.90;;;;;;5057019;28;20198;-62
2023/04/07 03:55:47;;;;;;;16.00;14.15;;;8.80;99.90;;;;;;5056744;28;20232;-62
2023/04/07 03:58:13;;;;;;;21.83;15.32;;;8.70;99.90;;;;;;5056975;28;20171;-61
2023/04/07 04:00:38;;;;;;;23.23;16.30;;;8.60;99.90;;;;;;5056955;28;20224;-62
2023/04/07 04:03:04;;;;;;;17.35;14.48;;;8.60;99.90;;;;;;5056748;28;20206;-62
2023/04/07 04:05:30;;;;;;;22.75;15.55;;;8.60;99.90;;;;;;5056826;28;20186;-61
2023/04/07 04:07:55;;;;;;;21.20;15.38;;;8.60;99.90;;;;;;5056779;28;20636;-62
2023/04/07 04:10:21;;;;;;;18.92;15.18;;;8.40;99.90;;;;;;5055678;28;20182;-62
2023/04/07 04:12:48;;;;;;;18.50;14.57;;;8.40;99.90;;;;;;5056475;28;20240;-62
2023/04/07 04:15:14;;;;;;;20.98;15.55;;;8.30;99.90;;;;;;5056565;28;20171;-62
2023/04/07 04:17:40;;;;;;;18.95;15.35;;;8.30;99.90;;;;;;5056617;28;20636;-62
2023/04/07 04:20:07;;;;;;;21.08;15.30;;;8.10;99.90;;;;;;5056472;28;20185;-62
2023/04/07 04:22:32;;;;;;;17.75;14.68;;;8.10;99.90;;;;;;5056370;28;20171;-61
2023/04/07 04:24:58;;;;;;;17.20;15.38;;;8.00;99.90;;;;;;5056546;28;20727;-61
2023/04/07 04:27:24;;;;;;;18.10;14.30;;;7.90;99.90;;;;;;5056234;28;20225;-62
2023/04/07 04:29:50;;;;;;;18.75;15.40;;;7.80;99.90;;;;;;5056290;28;20199;-62
2023/04/07 04:32:16;;;;;;;19.42;15.38;;;7.70;99.90;;;;;;5056370;28;20182;-49
2023/04/07 04:34:43;;;;;;;18.25;15.95;;;7.70;99.90;;;;;;5056155;28;20178;-60
2023/04/07 04:37:08;;;;;;;22.52;16.38;;;7.70;99.90;;;;;;5056511;28;20620;-59
2023/04/07 04:39:34;;;;;;;20.77;16.25;;;7.60;99.90;;;;;;5056209;28;20185;-59
2023/04/07 04:42:00;;;;;;;21.70;16.48;;;7.60;99.90;;;;;;5056156;28;20177;-60
2023/04/07 04:44:26;;;;;;;18.08;15.50;;;7.50;99.90;;;;;;5056018;28;20202;-60
2023/04/07 04:46:52;;;;;;;18.00;14.07;;;7.50;99.90;;;;;;5056004;28;20172;-59
2023/04/07 04:49:18;;;;;;;21.92;15.35;;;7.50;99.90;;;;;;5055746;28;20175;-59
2023/04/07 04:51:44;;;;;;;21.73;13.65;;;7.40;99.90;;;;;;5055909;28;20191;-59
2023/04/07 04:54:10;;;;;;;18.23;15.07;;;7.40;99.90;;;;;;5055588;28;20182;-61
2023/04/07 04:56:36;;;;;;;21.27;16.02;;;7.40;99.90;;;;;;5055856;28;20175;-60
2023/04/07 04:59:03;;;;;;;20.13;15.77;;;7.50;99.90;;;;;;5055911;28;20253;-59
2023/04/07 05:01:28;;;;;;;19.95;16.73;;;7.50;99.90;;;;;;5055175;28;20523;-60
2023/04/07 05:03:54;;;;;;;18.92;15.07;;;7.60;99.90;;;;;;5055579;28;20322;-60
2023/04/07 05:06:20;;;;;;;20.48;16.25;;;7.70;99.90;;;;;;5055670;28;20172;-60
2023/04/07 05:08:46;;;;;;;21.02;16.13;;;7.70;99.90;;;;;;5055536;28;20278;-60
2023/04/07 05:11:11;;;;;;;21.85;17.50;;;7.70;99.90;;;;;;5055660;28;20190;-60
2023/04/07 05:13:37;;;;;;;22.33;16.25;;;7.80;99.90;;;;;;5055573;28;20218;-60
2023/04/07 05:16:03;;;;;;;30.08;19.25;;;7.80;99.90;;;;;;5055510;28;20168;-60
2023/04/07 05:18:29;;;;;;;20.33;16.33;;;7.80;99.90;;;;;;5055144;28;20194;-60
2023/04/07 05:20:55;;;;;;;21.35;16.52;;;7.80;99.90;;;;;;5055425;28;20172;-60
2023/04/07 05:23:20;;;;;;;20.88;16.27;;;7.80;99.90;;;;;;5054837;28;20238;-60
2023/04/07 05:25:46;;;;;;;20.05;15.68;;;7.80;99.90;;;;;;5055275;28;20183;-60
2023/04/07 05:28:12;;;;;;;21.52;15.82;;;7.70;99.90;;;;;;5054997;28;20179;-60
2023/04/07 05:30:38;;;;;;;18.67;15.82;;;7.70;99.90;;;;;;5055214;28;20175;-60
2023/04/07 05:33:03;;;;;;;19.00;15.00;;;7.60;99.90;;;;;;5055165;28;20199;-60
2023/04/07 05:35:29;;;;;;;16.88;14.13;;;7.60;99.90;;;;;;5055227;28;20186;-60
2023/04/07 05:37:55;;;;;;;18.65;15.80;;;7.60;99.90;;;;;;5055121;28;20179;-60
2023/04/07 05:40:20;;;;;;;21.25;14.82;;;7.60;99.90;;;;;;5055153;28;20175;-60
2023/04/07 05:42:46;;;;;;;18.13;14.32;;;7.50;99.90;;;;;;5054879;28;20179;-59
2023/04/07 05:45:12;;;;;;;17.98;15.27;;;7.50;99.90;;;;;;5054678;28;20185;-60
2023/04/07 05:47:37;;;;;;;19.20;14.55;;;7.50;99.90;;;;;;5054857;28;20183;-60
2023/04/07 05:50:04;;;;;;;17.60;13.48;;;7.50;99.90;;;;;;5054916;28;20213;-59
2023/04/07 05:52:30;;;;;;;20.50;16.23;;;7.50;99.90;;;;;;5054766;28;20258;-59
2023/04/07 05:54:55;;;;;;;22.02;17.13;;;7.60;99.90;;;;;;5054859;28;20695;-60
2023/04/07 05:57:21;;;;;;;19.35;15.88;;;7.60;99.90;;;;;;5054385;28;20186;-60
2023/04/07 05:59:47;;;;;;;22.63;16.75;;;7.70;99.90;;;;;;5054618;28;20175;-60
2023/04/07 06:02:13;;;;;;;20.45;14.82;;;7.80;99.90;;;;;;5054651;28;20199;-60
2023/04/07 06:04:39;;;;;;;23.13;16.95;;;7.90;99.90;;;;;;5054464;28;20207;-60
2023/04/07 06:07:05;;;;;;;23.00;16.67;;;8.00;99.90;;;;;;5054499;28;20179;-59
2023/04/07 06:09:30;;;;;;;24.15;16.77;;;8.10;99.90;;;;;;5054462;28;20189;-59
2023/04/07 06:11:57;;;;;;;21.25;16.25;;;8.20;99.90;;;;;;5053867;28;20168;-59
2023/04/07 06:14:22;;;;;;;19.90;15.13;;;8.40;99.90;;;;;;5054060;28;20239;-60
2023/04/07 06:16:48;;;;;;;21.92;14.80;;;8.50;99.90;;;;;;5054334;28;20258;-60
2023/04/07 06:19:14;;;;;;;25.52;16.30;;;8.60;99.90;;;;;;5054328;28;20191;-60
2023/04/07 06:21:40;;;;;;;22.35;15.50;;;8.60;99.90;;;;;;5054244;28;20249;-59
2023/04/07 06:24:06;;;;;;;23.90;15.85;;;8.80;99.90;;;;;;5054054;28;20667;-59
2023/04/07 06:26:32;;;;;;;18.77;14.23;;;8.90;99.90;;;;;;5054166;28;20171;-59
2023/04/07 06:28:58;;;;;;;18.77;12.95;;;9.00;99.90;;;;;;5054076;28;20241;-59
2023/04/07 06:31:24;;;;;;;22.92;13.70;;;8.90;99.90;;;;;;5053945;28;20186;-59
2023/04/07 06:33:50;;;;;;;17.80;12.65;;;8.80;99.90;;;;;;5053842;28;20172;-59
2023/04/07 06:36:16;;;;;;;16.15;12.48;;;8.70;99.90;;;;;;5053045;28;20185;-59
2023/04/07 06:38:42;;;;;;;16.17;11.57;;;8.60;99.90;;;;;;5053971;28;20188;-59
2023/04/07 06:41:11;;;;;;;17.15;11.88;;;8.50;99.90;;;;;;5053906;28;20172;-59
2023/04/07 06:43:37;;;;;;;17.60;12.07;;;8.60;99.90;;;;;;5053470;28;20706;-59
2023/04/07 06:46:03;;;;;;;16.40;12.18;;;8.60;99.90;;;;;;5053240;28;20179;-60
2023/04/07 06:48:29;;;;;;;12.75;11.18;;;8.60;99.90;;;;;;5053142;28;20163;-60
2023/04/07 06:50:54;;;;;;;14.65;10.00;;;8.50;99.90;;;;;;5053664;28;20172;-60
2023/04/07 06:53:20;;;;;;;12.80;9.50;;;8.50;99.90;;;;;;5053765;28;20620;-59
2023/04/07 06:55:46;;;;;;;11.82;10.00;;;8.60;99.90;;;;;;5053387;28;20628;-59
2023/04/07 06:58:11;;;;;;;13.55;8.50;;;8.60;99.90;;;;;;5052918;28;20190;-59
2023/04/07 07:00:38;;;;;;;11.85;8.32;;;8.70;99.90;;;;;;5053250;28;20688;-59
2023/04/07 07:03:03;;;;;;;14.10;8.68;;;8.80;99.90;;;;;;5052827;28;20587;-59
2023/04/07 07:05:29;;;;;;;11.98;8.52;;;8.80;99.90;;;;;;5051014;28;20186;-60
2023/04/07 07:07:55;;;;;;;15.07;8.40;;;8.90;99.90;;;;;;5050053;28;20171;-60
2023/04/07 07:10:21;;;;;;;14.95;8.65;;;9.00;99.90;;;;;;5050906;28;20175;-60
2023/04/07 07:12:48;;;;;;;8.05;7.25;;;9.10;99.90;;;;;;5048893;28;20662;-60
2023/04/07 07:15:14;;;;;;;9.27;8.13;;;9.00;99.90;;;;;;5047916;28;20514;-59
2023/04/07 07:17:40;;;;;;;9.57;7.25;;;9.00;99.90;;;;;;5049978;28;20179;-59
2023/04/07 07:20:06;;;;;;;10.55;7.28;;;9.10;99.90;;;;;;5050393;28;20183;-60
2023/04/07 07:22:32;;;;;;;9.90;7.38;;;9.10;99.90;;;;;;5050664;28;20212;-60
2023/04/07 07:24:57;;;;;;;10.20;6.93;;;9.10;99.90;;;;;;5051287;28;20285;-60
2023/04/07 07:27:23;;;;;;;10.73;7.30;;;9.10;99.90;;;;;;5053104;28;20634;-60
2023/04/07 07:29:49;;;;;;;9.27;6.53;;;9.10;99.90;;;;;;5053287;28;20175;-60
2023/04/07 07:32:15;;;;;;;8.68;6.55;;;9.40;99.90;;;;;;5052983;28;20182;-60
2023/04/07 07:34:40;;;;;;;9.77;6.85;;;9.50;99.90;;;;;;5052730;28;20210;-60
2023/04/07 07:37:06;;;;;;;7.93;6.47;;;9.60;99.90;;;;;;5053207;28;20183;-60
2023/04/07 07:39:32;;;;;;;8.60;6.72;;;9.80;99.90;;;;;;5053172;28;20632;-60
2023/04/07 07:41:57;;;;;;;8.15;6.30;;;9.80;99.90;;;;;;5052019;28;20536;-60
2023/04/07 07:44:23;;;;;;;8.68;6.05;;;9.90;99.90;;;;;;5053014;28;20211;-60
2023/04/07 07:46:49;;;;;;;8.48;5.90;;;10.00;99.90;;;;;;5052767;28;20594;-60
2023/04/07 07:49:15;;;;;;;8.80;5.95;;;10.20;99.90;;;;;;5053046;28;20171;-60
2023/04/07 07:51:41;;;;;;;7.72;5.75;;;10.20;99.90;;;;;;5052973;28;20262;-60
2023/04/07 07:54:08;;;;;;;8.75;5.30;;;10.10;99.90;;;;;;5053007;28;20171;-60
2023/04/07 07:56:34;;;;;;;6.95;5.47;;;10.20;99.90;;;;;;5052623;28;20190;-60
2023/04/07 07:59:00;;;;;;;11.85;5.88;;;10.20;99.90;;;;;;5052726;28;20541;-59
2023/04/07 08:01:26;;;;;;;7.20;5.32;;;10.20;99.90;;;;;;5052359;28;20176;-59
2023/04/07 08:03:52;;;;;;;6.85;5.40;;;10.30;99.90;;;;;;5051640;28;20225;-60
2023/04/07 08:06:17;;;;;;;6.88;5.40;;;10.40;99.90;;;;;;5052605;28;20182;-60
2023/04/07 08:08:43;;;;;;;6.00;5.28;;;10.50;99.90;;;;;;5052875;28;20604;-59
2023/04/07 08:11:09;;;;;;;6.53;4.93;;;10.70;99.90;;;;;;5052395;28;20179;-59
2023/04/07 08:13:35;;;;;;;7.28;5.30;;;10.90;99.90;;;;;;5053055;28;20184;-60
2023/04/07 08:16:01;;;;;;;6.03;4.50;;;11.10;99.90;;;;;;5052760;28;20175;-59
2023/04/07 08:18:26;;;;;;;8.57;4.10;;;11.10;99.90;;;;;;5052722;28;20182;-59
2023/04/07 08:20:52;;;;;;;7.47;3.72;;;10.80;99.90;;;;;;5052745;28;20203;-59
2023/04/07 08:23:18;;;;;;;6.03;3.85;;;10.60;99.90;;;;;;5052403;28;20405;-60
2023/04/07 08:25:44;;;;;;;5.20;3.75;;;10.60;99.90;;;;;;5051439;28;20700;-60
2023/04/07 08:28:09;;;;;;;5.80;3.80;;;10.60;99.90;;;;;;5052629;28;20199;-59
2023/04/07 08:30:36;;;;;;;4.65;3.55;;;10.60;99.90;;;;;;5052657;28;20190;-59
2023/04/07 08:33:04;;;;;;;5.43;3.15;;;10.70;99.90;;;;;;5052557;28;20240;-59
2023/04/07 08:35:30;;;;;;;4.82;2.60;;;10.80;99.90;;;;;;5052943;28;20187;-59
2023/04/07 08:37:56;;;;;;;5.15;3.08;;;11.00;99.90;;;;;;5055929;28;20179;-59
2023/04/07 08:40:21;;;;;;;6.20;2.80;;;11.60;99.90;;;;;;5056285;28;20521;-59
2023/04/07 08:42:48;;;;;;;6.50;2.90;;;12.00;99.90;;;;;;5056046;28;20635;-59
2023/04/07 08:45:16;;;;;;;5.30;2.50;;;12.20;99.90;;;;;;5056030;28;20196;-59
2023/04/07 08:47:42;;;;;;;7.57;2.60;;;11.80;99.90;;;;;;5056023;28;20257;-59
2023/04/07 08:50:11;;;;;;;7.88;3.00;;;11.70;99.90;;;;;;5055940;28;20190;-59
2023/04/07 08:52:59;;;;;;;5.00;2.85;;;11.80;99.90;;;;;;5055828;28;20169;-59
2023/04/07 08:55:25;;;;;;;6.47;2.80;;;12.00;99.90;;;;;;5055837;28;20167;-59
2023/04/07 08:57:52;;;;;;;7.00;3.10;;;12.00;99.90;;;;;;5055812;28;20175;-59
2023/04/07 09:00:18;;;;;;;3.88;2.75;;;11.90;99.90;;;;;;5055781;28;20171;-59
2023/04/07 09:02:44;;;;;;;6.68;2.60;;;11.80;99.90;;;;;;5055280;28;20270;-59
2023/04/07 09:05:11;;;;;;;6.70;2.45;;;11.70;99.90;;;;;;5055711;28;20202;-60
2023/04/07 09:07:44;;;;;;;5.03;2.15;;;11.60;99.90;;;;;;5055613;28;20221;-59
2023/04/07 09:10:10;;;;;;;4.93;2.42;;;11.50;99.90;;;;;;5055570;28;20160;-59
2023/04/07 09:12:36;;;;;;;6.20;2.35;;;11.50;99.90;;;;;;5055298;28;20222;-59
2023/04/07 09:15:03;;;;;;;4.72;2.00;;;11.40;99.90;;;;;;5055503;28;20175;-59
2023/04/07 09:17:28;;;;;;;4.38;2.22;;;11.30;99.90;;;;;;5055528;28;20230;-59
2023/04/07 09:19:59;;;;;;;6.20;2.05;;;11.10;99.90;;;;;;5054044;28;20175;-59
2023/04/07 09:22:36;;;;;;;6.05;2.33;;;11.00;99.90;;;;;;5055295;28;20254;-60
2023/04/07 09:25:26;;;;;;;7.40;2.67;;;10.90;99.90;;;;;;5055334;28;20226;-59
2023/04/07 09:28:04;;;;;;;4.10;2.30;;;10.50;99.90;;;;;;5055330;28;20187;-59
2023/04/07 09:30:32;;;;;;;10.85;3.13;;;10.40;99.90;;;;;;5055126;28;20699;-59
2023/04/07 09:32:59;;;;;;;6.28;3.25;;;10.40;99.90;;;;;;5055338;28;20278;-59
2023/04/07 09:35:27;;;;;;;11.75;3.30;;;10.40;99.90;;;;;;5054787;28;20261;-59
2023/04/07 09:38:03;;;;;;;8.65;3.80;;;10.30;99.90;;;;;;5055059;28;20179;-60
2023/04/07 09:40:29;;;;;;;6.90;3.53;;;10.20;99.90;;;;;;5054913;28;20175;-59
2023/04/07 09:42:57;;;;;;;7.20;3.53;;;10.20;99.90;;;;;;5054925;28;20172;-59
2023/04/07 09:45:26;;;;;;;10.63;4.07;;;10.10;99.90;;;;;;5054900;28;20193;-59
2023/04/07 09:47:53;;;;;;;10.65;3.85;;;10.30;99.90;;;;;;5054820;28;20163;-60
2023/04/07 09:50:40;;;;;;;10.85;3.47;;;10.40;99.90;;;;;;5054825;28;20167;-59
2023/04/07 09:53:06;;;;;;;5.15;2.67;;;10.40;99.90;;;;;;5054753;28;20185;-59
2023/04/07 09:55:32;;;;;;;9.65;4.00;;;10.30;99.90;;;;;;5054497;28;20175;-59
2023/04/07 09:57:59;;;;;;;8.52;4.03;;;10.40;99.90;;;;;;5054590;28;20202;-59
2023/04/07 10:00:25;;;;;;;7.65;3.67;;;10.50;99.90;;;;;;5054085;28;20179;-59
2023/04/07 10:02:51;;;;;;;9.65;3.75;;;10.60;99.90;;;;;;5054523;28;20179;-59
2023/04/07 10:05:20;;;;;;;12.00;3.65;;;10.80;99.90;;;;;;5054504;28;20254;-59
2023/04/07 10:07:46;;;;;;;6.18;3.30;;;10.90;99.90;;;;;;5054423;28;20179;-60
2023/04/07 10:10:12;;;;;;;7.75;2.67;;;10.80;99.90;;;;;;5054201;28;20179;-59
2023/04/07 10:12:40;;;;;;;9.52;2.67;;;10.60;99.90;;;;;;5054713;28;20592;-59
2023/04/07 10:15:06;;;;;;;4.03;2.53;;;10.50;99.90;;;;;;5054383;28;20175;-59
2023/04/07 10:17:32;;;;;;;5.57;3.00;;;10.50;99.90;;;;;;5054022;28;20520;-59
2023/04/07 10:20:00;;;;;;;5.93;3.15;;;10.40;99.90;;;;;;5054291;28;20186;-60
2023/04/07 10:22:27;;;;;;;8.70;3.10;;;10.40;99.90;;;;;;5053753;28;20492;-59
2023/04/07 10:25:01;;;;;;;6.13;3.00;;;10.40;99.90;;;;;;5052833;28;20662;-59
2023/04/07 10:27:32;;;;;;;7.10;3.22;;;10.60;99.90;;;;;;5051821;28;20251;-59
2023/04/07 10:30:00;;;;;;;8.40;3.40;;;10.80;99.90;;;;;;5053277;28;20521;-59
2023/04/07 10:32:26;;;;;;;7.93;3.33;;;11.10;99.90;;;;;;5052837;28;20693;-59
2023/04/07 10:34:54;;;;;;;5.38;2.85;;;11.10;99.90;;;;;;5053208;28;20186;-60
2023/04/07 10:37:21;;;;;;;4.68;2.63;;;11.10;99.90;;;;;;5053281;28;20171;-59
2023/04/07 10:39:48;;;;;;;8.90;3.47;;;11.30;99.90;;;;;;5052785;28;20595;-59
2023/04/07 10:42:35;;;;;;;5.57;2.40;;;11.30;99.90;;;;;;5052652;28;20694;-59
2023/04/07 10:45:02;;;;;;;6.65;2.80;;;11.60;99.90;;;;;;5052652;28;20286;-59
2023/04/07 10:47:28;;;;;;;4.45;2.00;;;12.10;99.90;;;;;;5053013;28;20179;-59
2023/04/07 10:50:16;;;;;;;6.60;2.33;;;12.00;99.90;;;;;;5052963;28;20270;-59
2023/04/07 10:52:43;;;;;;;5.60;2.63;;;11.60;99.90;;;;;;5052777;28;20239;-59
2023/04/07 10:55:30;;;;;;;6.90;2.15;;;11.50;99.90;;;;;;5052766;28;20182;-59
2023/04/07 10:58:25;;;;;;;7.35;2.28;;;11.40;99.90;;;;;;5052578;28;20175;-59
2023/04/07 11:01:05;;;;;;;4.57;2.45;;;11.20;99.90;;;;;;5052688;28;20182;-60
2023/04/07 11:03:36;;;;;;;6.82;2.72;;;10.90;99.90;;;;;;5052696;28;20191;-59
2023/04/07 11:06:03;;;;;;;6.65;2.60;;;10.80;99.90;;;;;;5052787;28;20186;-59
2023/04/07 11:08:37;;;;;;;4.80;2.35;;;10.80;99.90;;;;;;5052565;28;20224;-59
2023/04/07 11:11:07;;;;;;;7.97;2.55;;;10.80;99.90;;;;;;5052681;28;20178;-59
2023/04/07 11:14:03;;;;;;;12.80;8.95;;;10.80;99.90;;;;;;5052368;28;20168;-59
2023/04/07 11:16:40;;;;;;;8.60;3.45;;;11.10;99.90;;;;;;5043665;28;20221;-60
2023/04/07 11:19:06;;;;;;;6.95;2.78;;;11.00;99.90;;;;;;5052521;28;20163;-59
2023/04/07 11:21:32;;;;;;;7.15;3.38;;;11.10;99.90;;;;;;5052544;28;20284;-59
2023/04/07 11:23:57;;;;;;;7.68;2.88;;;11.10;99.90;;;;;;5052228;28;20238;-59
2023/04/07 11:26:23;;;;;;;13.65;4.10;;;11.20;99.90;;;;;;5052268;28;20175;-59
2023/04/07 11:28:54;;;;;;;8.13;3.15;;;11.50;99.90;;;;;;5052424;28;20183;-59
2023/04/07 11:31:32;;;;;;;8.05;3.05;;;11.50;99.90;;;;;;5052723;28;20226;-59
2023/04/07 11:34:03;;;;;;;7.63;2.95;;;11.50;99.90;;;;;;5052352;28;20458;-59
2023/04/07 11:36:40;;;;;;;5.60;2.50;;;11.60;99.90;;;;;;5052409;28;20262;-59
2023/04/07 11:39:20;;;;;;;8.50;3.22;;;11.50;99.90;;;;;;5052429;28;20170;-59
2023/04/07 11:41:47;;;;;;;7.93;3.72;;;11.50;99.90;;;;;;5052402;28;20190;-59
2023/04/07 11:44:13;;;;;;;6.57;2.72;;;11.40;99.90;;;;;;5052119;28;20221;-59
2023/04/07 11:46:58;;;;;;;8.02;2.38;;;11.40;99.90;;;;;;5052231;28;20254;-59
2023/04/07 11:49:28;;;;;;;6.57;2.40;;;11.30;99.90;;;;;;5052384;28;20201;-59
2023/04/07 11:52:05;;;;;;;4.47;2.08;;;10.90;99.90;;;;;;5052514;28;20233;-59
2023/04/07 11:54:53;;;;;;;6.65;2.42;;;10.60;99.90;;;;;;5052198;28;20644;-59
2023/04/07 11:57:27;;;;;;;5.65;2.55;;;10.50;99.90;;;;;;5051968;28;20479;-59
2023/04/07 12:00:06;;;;;;;8.88;2.80;;;10.30;99.90;;;;;;5052442;28;20171;-59
2023/04/07 12:02:34;;;;;;;7.68;2.90;;;10.30;99.90;;;;;;5051961;28;20195;-59
2023/04/07 12:05:00;;;;;;;7.80;2.95;;;10.50;99.90;;;;;;5052037;28;20203;-59
2023/04/07 12:07:26;;;;;;;9.95;2.97;;;10.60;99.90;;;;;;5052076;28;20236;-59
2023/04/07 12:09:53;;;;;;;5.32;2.90;;;10.70;99.90;;;;;;5052243;28;20175;-59
2023/04/07 12:12:28;;;;;;;8.10;3.10;;;10.80;99.90;;;;;;5054983;28;20176;-59
2023/04/07 12:14:55;;;;;;;7.57;3.05;;;10.60;99.90;;;;;;5055630;28;20270;-59
2023/04/07 12:17:25;;;;;;;10.75;2.88;;;10.70;99.90;;;;;;5054440;28;20271;-59
2023/04/07 12:19:51;;;;;;;6.00;2.60;;;10.50;99.90;;;;;;5056070;28;20159;-60
2023/04/07 12:22:18;;;;;;;6.55;2.80;;;10.40;99.90;;;;;;5055626;28;20179;-59
2023/04/07 12:24:44;;;;;;;5.95;2.78;;;10.30;99.90;;;;;;5055484;28;20306;-59
2023/04/07 12:27:10;;;;;;;6.97;2.85;;;10.30;99.90;;;;;;5055572;28;20270;-59
2023/04/07 12:29:39;;;;;;;7.78;4.43;;;10.10;99.90;;;;;;5055546;28;20620;-59
2023/04/07 12:32:04;;;;;;;6.63;2.83;;;10.00;99.90;;;;;;5055395;28;20183;-59
2023/04/07 12:34:30;;;;;;;7.20;2.97;;;10.10;99.90;;;;;;5055394;28;20187;-60
2023/04/07 12:36:56;;;;;;;8.30;3.88;;;10.10;99.90;;;;;;5055335;28;20532;-60
2023/04/07 12:39:21;;;;;;;6.40;3.20;;;10.30;99.90;;;;;;5055315;28;20532;-59
2023/04/07 12:41:51;;;;;;;5.95;3.22;;;10.60;99.90;;;;;;5055337;28;20171;-59
2023/04/07 12:44:17;;;;;;;6.68;3.00;;;10.70;99.90;;;;;;5054441;28;20704;-59